Time;durP1;ratioP1;P1;durP2;ratioP2;P2;SDS_P1;SDS_P2;PMS_P1;PMS_P2;Temp;Humidity;BMP_temperature;BMP_pressure;BME280_temperature;BME280_humidity;BME280_pressure;Samples;Min_cycle;Max_cycle;Signal;HPM_P1;HPM_P2
2022/04/10 00:01:22;;;;;;;1.92;1.00;;;;;;;16.17;44.64;97537.19;5075428;28;20032;-81
2022/04/10 00:03:48;;;;;;;3.25;1.10;;;;;;;16.08;44.48;97531.88;5074595;28;20381;-82
2022/04/10 00:06:13;;;;;;;3.95;1.30;;;;;;;15.79;43.79;97496.78;5074335;28;20050;-81
2022/04/10 00:08:39;;;;;;;1.65;1.10;;;;;;;16.38;43.28;97540.56;5078700;28;20062;-82
2022/04/10 00:11:05;;;;;;;4.45;1.70;;;;;;;16.23;43.33;97526.81;5094640;28;20402;-82
2022/04/10 00:13:30;;;;;;;2.08;0.90;;;;;;;16.28;43.85;97537.22;5094785;28;20024;-82
2022/04/10 00:15:56;;;;;;;2.47;1.10;;;;;;;16.27;42.91;97507.81;5095183;28;20027;-82
2022/04/10 00:18:21;;;;;;;1.77;1.38;;;;;;;16.17;43.38;97537.19;5094469;28;20471;-82
2022/04/10 00:20:47;;;;;;;2.53;0.95;;;;;;;16.40;42.54;97532.44;5094482;28;20032;-82
2022/04/10 00:23:12;;;;;;;3.00;0.70;;;;;;;16.24;42.76;97525.56;5094320;28;20469;-82
2022/04/10 00:25:38;;;;;;;3.00;1.20;;;;;;;15.92;43.05;97520.66;5094263;28;20119;-82
2022/04/10 00:28:03;;;;;;;0.88;0.88;;;;;;;15.80;43.44;97466.94;5094133;28;20407;-82
2022/04/10 00:30:32;;;;;;;1.25;0.90;;;;;;;16.21;43.68;97534.19;5094081;28;20155;-82
2022/04/10 00:32:58;;;;;;;0.98;0.93;;;;;;;16.13;43.81;97535.94;5094760;28;20479;-82
2022/04/10 00:35:23;;;;;;;3.90;1.10;;;;;;;15.98;43.86;97527.00;5095402;28;20028;-82
2022/04/10 00:37:48;;;;;;;2.25;0.80;;;;;;;15.73;43.25;97456.28;5095741;28;20085;-82
2022/04/10 00:40:14;;;;;;;0.80;0.70;;;;;;;15.87;43.56;97531.28;5093838;28;20052;-82
2022/04/10 00:42:45;;;;;;;1.48;0.82;;;;;;;15.86;44.13;97523.41;5093904;28;20483;-82
2022/04/10 00:45:11;;;;;;;4.35;1.45;;;;;;;15.76;43.73;97506.16;5094395;28;20032;-82
2022/04/10 00:47:36;;;;;;;3.33;1.50;;;;;;;15.57;44.34;97524.56;5084905;28;20021;-82
2022/04/10 00:50:07;;;;;;;0.98;0.90;;;;;;;15.87;43.98;97533.28;5074217;28;20028;-82
2022/04/10 00:52:34;;;;;;;5.47;1.55;;;;;;;15.76;43.66;97516.53;5073450;28;20029;-82
2022/04/10 00:55:00;;;;;;;5.88;1.38;;;;;;;15.52;43.74;97479.97;5090246;28;20035;-82
2022/04/10 00:57:26;;;;;;;0.50;0.50;;;;;;;15.91;43.00;97480.91;5073283;28;20025;-82
2022/04/10 00:59:52;;;;;;;3.20;1.02;;;;;;;16.28;43.50;97520.50;5073460;28;20494;-82
2022/04/10 01:02:18;;;;;;;0.85;0.85;;;;;;;15.83;44.04;97486.19;5073341;28;20464;-82
2022/04/10 01:04:46;;;;;;;1.45;1.13;;;;;;;15.94;43.74;97516.09;5092178;28;20060;-82
2022/04/10 01:07:13;;;;;;;1.55;1.27;;;;;;;16.07;43.17;97524.75;5094781;28;20027;-82
2022/04/10 01:09:40;;;;;;;2.40;1.48;;;;;;;15.75;43.68;97468.44;5093343;28;20067;-82
2022/04/10 01:12:07;;;;;;;1.92;0.80;;;;;;;16.06;44.40;97503.72;5076110;28;20031;-82
2022/04/10 01:14:33;;;;;;;3.40;1.20;;;;;;;16.02;44.26;97525.50;5074463;28;20042;-82
2022/04/10 01:16:59;;;;;;;1.30;1.20;;;;;;;15.80;44.81;97519.84;5073224;28;20029;-81
2022/04/10 01:19:25;;;;;;;2.65;1.52;;;;;;;15.01;44.57;97412.16;5087125;28;20090;-82
2022/04/10 01:21:53;;;;;;;5.38;1.23;;;;;;;15.77;44.12;97493.78;5093286;28;20475;-82
2022/04/10 01:24:19;;;;;;;;;;;;;;;15.64;45.50;97512.19;5093574;28;20118;-82
2022/04/10 01:26:46;;;;;;;1.90;0.95;;;;;;;15.48;45.01;97492.09;5092735;28;20398;-82
2022/04/10 01:29:13;;;;;;;4.40;1.25;;;;;;;15.32;45.46;97512.25;5093515;28;20031;-82
2022/04/10 01:31:43;;;;;;;2.95;1.00;;;;;;;14.96;46.40;97504.66;5092972;28;20165;-82
2022/04/10 01:34:11;;;;;;;1.27;1.08;;;;;;;14.92;46.86;97520.84;5092674;28;20056;-82
2022/04/10 01:36:37;;;;;;;4.10;1.08;;;;;;;15.08;46.74;97522.97;5092727;28;20034;-82
2022/04/10 01:39:05;;;;;;;1.85;1.10;;;;;;;14.87;46.87;97524.34;5092786;28;20126;-82
2022/04/10 01:41:32;;;;;;;1.88;0.65;;;;;;;14.83;46.06;97498.78;5093929;28;20036;-82
2022/04/10 01:43:59;;;;;;;1.65;1.38;;;;;;;14.95;46.31;97531.72;5090530;28;20036;-82
2022/04/10 01:46:29;;;;;;;1.95;1.02;;;;;;;15.05;46.79;97521.94;5073155;28;20455;-82
2022/04/10 01:48:55;;;;;;;1.23;0.82;;;;;;;14.77;46.95;97470.91;5072065;28;20403;-83
2022/04/10 01:51:20;;;;;;;2.95;1.27;;;;;;;14.76;46.39;97486.09;5072032;28;20515;-82
2022/04/10 01:53:46;;;;;;;1.40;1.00;;;;;;;15.00;45.72;97489.28;5072616;28;20036;-81
2022/04/10 01:56:12;;;;;;;3.58;1.20;;;;;;;14.97;46.14;97515.31;5072220;28;20033;-80
2022/04/10 01:58:43;;;;;;;1.10;0.73;;;;;;;14.93;46.45;97464.72;5073273;28;20039;-81
2022/04/10 02:01:10;;;;;;;3.08;0.88;;;;;;;14.74;45.74;97423.88;5072626;28;20086;-81
2022/04/10 02:03:36;;;;;;;1.23;0.80;;;;;;;15.25;47.06;97496.00;5072404;28;20032;-80
2022/04/10 02:06:02;;;;;;;1.27;0.70;;;;;;;14.95;47.20;97522.59;5073065;28;20115;-81
2022/04/10 02:08:29;;;;;;;5.57;1.00;;;;;;;14.93;47.32;97516.78;5072090;28;20090;-82
2022/04/10 02:10:55;;;;;;;1.65;0.93;;;;;;;14.69;47.87;97502.44;5071748;28;20052;-81
2022/04/10 02:13:21;;;;;;;1.15;1.05;;;;;;;14.54;47.64;97474.78;5071892;28;20116;-81
2022/04/10 02:15:47;;;;;;;6.38;1.25;;;;;;;14.56;47.94;97489.72;5089101;28;20488;-82
2022/04/10 02:18:13;;;;;;;3.90;1.20;;;;;;;14.58;47.79;97470.53;5072266;28;20068;-82
2022/04/10 02:20:39;;;;;;;3.50;1.25;;;;;;;14.90;47.73;97487.94;5072158;28;20530;-82
2022/04/10 02:23:05;;;;;;;1.35;0.95;;;;;;;15.07;47.53;97499.19;5071812;28;20420;-82
2022/04/10 02:25:30;;;;;;;1.55;0.88;;;;;;;14.90;48.63;97482.38;5073236;28;20088;-83
2022/04/10 02:27:55;;;;;;;2.55;1.23;;;;;;;14.80;48.28;97458.81;5071736;28;20181;-83
2022/04/10 02:30:22;;;;;;;0.85;0.70;;;;;;;14.51;48.79;97428.53;5090631;28;20029;-83
2022/04/10 02:32:47;;;;;;;1.33;0.80;;;;;;;14.85;48.61;97480.31;5092005;28;20074;-82
2022/04/10 02:35:13;;;;;;;2.20;0.95;;;;;;;14.87;49.03;97471.50;5091972;28;20055;-83
2022/04/10 02:37:38;;;;;;;1.27;0.70;;;;;;;14.99;47.47;97465.53;5092433;28;20107;-84
2022/04/10 02:40:05;;;;;;;2.35;1.58;;;;;;;14.72;48.01;97463.28;5071905;28;20044;-83
2022/04/10 02:42:33;;;;;;;2.10;0.93;;;;;;;14.61;47.96;97447.28;5072300;28;20028;-84
2022/04/10 02:45:02;;;;;;;1.25;1.15;;;;;;;14.99;47.99;97507.25;5072156;28;20032;-84
2022/04/10 02:47:30;;;;;;;1.63;1.05;;;;;;;14.74;48.80;97507.28;5071608;28;20526;-84
2022/04/10 02:49:56;;;;;;;2.22;0.85;;;;;;;14.49;49.75;97506.06;5071688;28;20032;-84
2022/04/10 02:52:22;;;;;;;2.25;1.05;;;;;;;14.21;50.85;97509.31;5071834;28;20098;-84
2022/04/10 02:54:47;;;;;;;0.70;0.70;;;;;;;14.22;51.47;97504.53;5073208;28;20040;-83
2022/04/10 02:57:13;;;;;;;1.90;1.10;;;;;;;14.30;50.64;97486.16;5071782;28;20534;-83
2022/04/10 02:59:38;;;;;;;1.13;0.93;;;;;;;14.35;50.57;97501.34;5071822;28;20056;-83
2022/04/10 03:02:04;;;;;;;2.50;1.15;;;;;;;14.51;50.34;97511.91;5075836;28;20028;-83
2022/04/10 03:04:30;;;;;;;2.45;1.42;;;;;;;14.49;50.27;97509.59;5075680;28;20032;-83
2022/04/10 03:06:55;;;;;;;1.42;1.00;;;;;;;14.42;50.78;97504.47;5092473;28;20024;-83
2022/04/10 03:09:21;;;;;;;7.80;1.13;;;;;;;14.51;50.67;97512.66;5076536;28;20037;-84
2022/04/10 03:11:46;;;;;;;2.10;1.08;;;;;;;14.54;50.70;97547.81;5075420;28;20028;-83
2022/04/10 03:14:12;;;;;;;0.63;0.60;;;;;;;14.48;50.27;97521.97;5075773;28;20028;-83
2022/04/10 03:16:37;;;;;;;0.95;0.93;;;;;;;14.60;51.99;97536.72;5075268;28;20162;-83
2022/04/10 03:19:03;;;;;;;3.45;1.00;;;;;;;14.39;52.82;97536.03;5075101;28;20032;-83
2022/04/10 03:21:29;;;;;;;1.02;0.68;;;;;;;14.26;53.16;97544.72;5075279;28;20060;-83
2022/04/10 03:23:55;;;;;;;2.67;1.05;;;;;;;14.24;53.20;97525.00;5083738;28;20028;-83
2022/04/10 03:26:20;;;;;;;4.18;1.05;;;;;;;13.98;52.99;97531.78;5095529;28;20055;-82
2022/04/10 03:28:46;;;;;;;1.92;1.20;;;;;;;14.01;53.20;97528.78;5095401;28;20596;-83
2022/04/10 03:31:11;;;;;;;1.75;1.15;;;;;;;13.93;53.29;97529.69;5086019;28;20032;-83
2022/04/10 03:33:37;;;;;;;1.02;1.00;;;;;;;14.17;53.11;97555.97;5075206;28;20028;-83
2022/04/10 03:36:03;;;;;;;1.70;1.10;;;;;;;14.36;53.19;97552.88;5074837;28;20029;-84
2022/04/10 03:38:28;;;;;;;1.02;0.93;;;;;;;14.51;52.17;97554.34;5074443;28;20071;-84
2022/04/10 03:40:54;;;;;;;3.83;1.50;;;;;;;14.46;52.62;97560.63;5074920;28;20037;-84
2022/04/10 03:43:19;;;;;;;1.40;1.23;;;;;;;14.58;51.51;97548.38;5075086;28;20043;-84
2022/04/10 03:45:45;;;;;;;7.05;1.58;;;;;;;14.65;51.35;97550.69;5074754;28;20075;-83
2022/04/10 03:48:10;;;;;;;5.35;0.80;;;;;;;14.35;52.38;97535.44;5074749;28;20036;-83
2022/04/10 03:50:36;;;;;;;1.77;0.98;;;;;;;14.63;52.65;97552.44;5075250;28;20112;-83
2022/04/10 03:53:03;;;;;;;2.95;0.85;;;;;;;14.72;52.49;97557.06;5075064;28;20377;-81
2022/04/10 03:55:29;;;;;;;1.37;1.27;;;;;;;14.18;54.87;97549.19;5074536;28;20029;-83
2022/04/10 03:57:55;;;;;;;1.83;0.88;;;;;;;14.15;54.67;97549.41;5075302;28;20040;-83
2022/04/10 04:00:20;;;;;;;1.55;0.80;;;;;;;13.80;55.56;97553.03;5074371;28;20033;-83
2022/04/10 04:02:46;;;;;;;1.88;0.98;;;;;;;13.69;55.82;97516.78;5075067;28;20032;-83
2022/04/10 04:05:12;;;;;;;1.23;1.05;;;;;;;14.13;55.94;97546.34;5075505;28;20525;-83
2022/04/10 04:07:38;;;;;;;1.58;0.70;;;;;;;14.06;55.45;97525.31;5074650;28;20400;-83
2022/04/10 04:10:05;;;;;;;5.25;1.40;;;;;;;13.38;55.43;97431.41;5074482;28;20189;-82
2022/04/10 04:12:31;;;;;;;1.85;1.05;;;;;;;14.08;54.12;97545.03;5073845;28;20475;-84
2022/04/10 04:14:57;;;;;;;0.93;0.80;;;;;;;13.98;54.36;97498.47;5075317;28;20116;-83
2022/04/10 04:17:22;;;;;;;1.65;0.93;;;;;;;14.46;53.92;97540.41;5074239;28;20089;-84
2022/04/10 04:19:50;;;;;;;1.88;1.23;;;;;;;14.63;53.96;97564.31;5074179;28;20024;-84
2022/04/10 04:22:18;;;;;;;2.78;1.73;;;;;;;14.70;52.65;97565.16;5074252;28;20029;-83
2022/04/10 04:24:44;;;;;;;2.75;0.85;;;;;;;14.19;53.16;97513.81;5074021;28;20020;-83
2022/04/10 04:27:10;;;;;;;1.30;1.20;;;;;;;14.66;52.15;97580.00;5073801;28;20036;-83
2022/04/10 04:29:35;;;;;;;2.15;1.08;;;;;;;14.65;51.49;97520.09;5093943;28;20050;-83
2022/04/10 04:32:01;;;;;;;3.67;1.50;;;;;;;15.01;51.33;97571.47;5094182;28;20123;-83
2022/04/10 04:34:27;;;;;;;2.42;1.13;;;;;;;15.16;52.16;97595.63;5094197;28;20059;-83
2022/04/10 04:36:53;;;;;;;0.70;0.70;;;;;;;15.01;52.34;97540.09;5094015;28;20104;-83
2022/04/10 04:39:18;;;;;;;2.10;1.10;;;;;;;15.01;51.86;97551.22;5094000;28;20470;-83
2022/04/10 04:41:44;;;;;;;1.35;0.88;;;;;;;15.06;52.37;97570.00;5089750;28;20571;-82
2022/04/10 04:44:09;;;;;;;2.78;0.90;;;;;;;15.09;54.37;97596.81;5093815;28;20036;-83
2022/04/10 04:46:35;;;;;;;2.38;1.52;;;;;;;15.04;54.58;97562.16;5079955;28;20464;-83
2022/04/10 04:49:01;;;;;;;1.38;0.90;;;;;;;14.83;54.15;97571.09;5074635;28;20037;-83
2022/04/10 04:51:27;;;;;;;2.83;0.90;;;;;;;14.88;53.98;97615.63;5090288;28;20066;-82
2022/04/10 04:53:53;;;;;;;1.52;1.00;;;;;;;14.97;54.14;97592.41;5093691;28;20032;-83
2022/04/10 04:56:18;;;;;;;1.20;0.95;;;;;;;15.18;53.74;97602.22;5091523;28;20112;-83
2022/04/10 04:58:44;;;;;;;8.15;3.97;;;;;;;14.97;54.38;97579.28;5073321;28;20032;-82
2022/04/10 05:01:09;;;;;;;3.75;2.60;;;;;;;14.79;53.26;97537.16;5073339;28;20064;-83
2022/04/10 05:03:35;;;;;;;2.15;1.48;;;;;;;14.79;53.12;97560.16;5073345;28;20020;-83
2022/04/10 05:06:00;;;;;;;3.78;1.13;;;;;;;15.04;52.88;97580.84;5073420;28;20507;-83
2022/04/10 05:08:26;;;;;;;2.13;1.02;;;;;;;14.90;53.35;97578.97;5073192;28;20472;-83
2022/04/10 05:10:52;;;;;;;1.13;1.00;;;;;;;14.98;53.10;97580.03;5073161;28;20031;-83
2022/04/10 05:13:17;;;;;;;4.50;1.10;;;;;;;15.17;53.02;97600.69;5073023;28;20472;-83
2022/04/10 05:15:42;;;;;;;1.58;1.23;;;;;;;15.29;53.67;97605.09;5092955;28;20097;-83
2022/04/10 05:18:08;;;;;;;2.13;1.73;;;;;;;15.51;52.85;97609.28;5093878;28;20463;-83
2022/04/10 05:20:33;;;;;;;4.25;1.58;;;;;;;15.40;52.16;97596.03;5093033;28;20028;-83
2022/04/10 05:22:59;;;;;;;2.45;1.33;;;;;;;15.42;52.14;97599.09;5091458;28;20020;-84
2022/04/10 05:25:24;;;;;;;3.95;1.10;;;;;;;15.43;53.63;97631.25;5092777;28;20035;-83
2022/04/10 05:27:50;;;;;;;3.10;1.60;;;;;;;15.22;54.01;97610.34;5092827;28;20123;-83
2022/04/10 05:30:16;;;;;;;1.48;1.15;;;;;;;15.25;53.53;97604.53;5091559;28;20039;-84
2022/04/10 05:32:42;;;;;;;2.03;1.45;;;;;;;15.62;53.01;97621.28;5073997;28;20025;-83
2022/04/10 05:35:12;;;;;;;3.28;1.65;;;;;;;15.75;53.36;97618.06;5072580;28;20541;-83
2022/04/10 05:37:38;;;;;;;9.65;1.30;;;;;;;15.20;53.55;97580.22;5072286;28;20028;-84
2022/04/10 05:40:04;;;;;;;1.88;1.08;;;;;;;15.24;53.55;97554.97;5071851;28;20084;-83
2022/04/10 05:42:30;;;;;;;6.63;1.42;;;;;;;15.57;56.21;97601.75;5089316;28;20114;-82
2022/04/10 05:45:03;;;;;;;2.20;1.40;;;;;;;15.25;58.06;97575.97;5072132;28;20029;-80
2022/04/10 05:47:29;;;;;;;3.67;1.10;;;;;;;15.47;59.81;97615.84;5071656;28;20039;-81
2022/04/10 05:49:55;;;;;;;2.60;1.30;;;;;;;15.33;59.35;97608.41;5071532;28;20480;-80
2022/04/10 05:52:22;;;;;;;2.67;1.23;;;;;;;15.24;58.06;97611.38;5071653;28;20032;-80
2022/04/10 05:54:47;;;;;;;10.55;1.73;;;;;;;15.02;57.16;97597.25;5072623;28;20025;-80
2022/04/10 05:57:13;;;;;;;6.95;1.67;;;;;;;15.04;55.81;97572.50;5071585;28;20410;-80
2022/04/10 05:59:38;;;;;;;8.50;1.40;;;;;;;15.60;55.24;97606.34;5074211;28;20036;-80
2022/04/10 06:02:04;;;;;;;1.58;1.00;;;;;;;15.59;56.10;97602.78;5091686;28;20101;-81
2022/04/10 06:04:30;;;;;;;0.93;0.75;;;;;;;15.37;55.98;97552.53;5092986;28;20043;-81
2022/04/10 06:06:55;;;;;;;1.17;0.95;;;;;;;15.73;55.00;97576.03;5091609;28;20024;-81
2022/04/10 06:09:21;;;;;;;8.52;1.55;;;;;;;15.99;54.98;97590.59;5091687;28;20055;-81
2022/04/10 06:11:46;;;;;;;2.38;0.82;;;;;;;16.13;54.26;97600.78;5076775;28;20491;-81
2022/04/10 06:14:11;;;;;;;9.70;2.33;;;;;;;16.10;53.69;97587.84;5089770;28;20032;-81
2022/04/10 06:16:37;;;;;;;3.85;1.10;;;;;;;16.20;53.09;97600.31;5091703;28;20502;-80
2022/04/10 06:19:02;;;;;;;3.80;2.15;;;;;;;15.98;52.89;97599.44;5091518;28;20495;-80
2022/04/10 06:21:28;;;;;;;2.35;1.70;;;;;;;15.98;54.88;97597.41;5091446;28;20028;-80
2022/04/10 06:23:53;;;;;;;8.05;2.50;;;;;;;15.73;57.09;97587.19;5091191;28;20028;-82
2022/04/10 06:26:19;;;;;;;2.85;1.85;;;;;;;15.53;57.68;97551.88;5091096;28;20039;-78
2022/04/10 06:28:44;;;;;;;5.85;1.60;;;;;;;15.74;57.88;97591.47;5090900;28;20035;-80
2022/04/10 06:31:10;;;;;;;1.67;1.23;;;;;;;15.92;58.11;97596.63;5091396;28;20024;-80
2022/04/10 06:33:35;;;;;;;4.43;2.50;;;;;;;16.04;57.73;97577.94;5083814;28;20043;-81
2022/04/10 06:36:01;;;;;;;15.40;2.67;;;;;;;15.86;58.06;97532.53;5088622;28;20066;-82
2022/04/10 06:38:26;;;;;;;6.10;2.80;;;;;;;16.38;58.62;97590.75;5091267;28;20035;-82
2022/04/10 06:40:52;;;;;;;4.60;1.85;;;;;;;16.44;59.96;97582.38;5092583;28;20054;-80
2022/04/10 06:43:19;;;;;;;5.05;1.95;;;;;;;16.61;60.28;97581.19;5091473;28;20083;-80
2022/04/10 06:45:45;;;;;;;13.60;1.95;;;;;;;16.93;60.58;97598.47;5092145;28;20028;-80
2022/04/10 06:48:11;;;;;;;7.25;1.83;;;;;;;17.29;59.08;97595.94;5092614;28;20410;-80
2022/04/10 06:50:36;;;;;;;4.75;1.90;;;;;;;17.66;55.66;97582.44;5091381;28;20081;-80
2022/04/10 06:53:02;;;;;;;3.95;2.42;;;;;;;18.15;55.13;97608.72;5091279;28;20024;-80
2022/04/10 06:55:28;;;;;;;10.70;3.47;;;;;;;18.16;52.97;97573.91;5091381;28;20123;-80
2022/04/10 06:57:53;;;;;;;8.63;3.55;;;;;;;18.42;51.50;97601.50;5092255;28;20126;-80
2022/04/10 07:00:19;;;;;;;11.13;2.30;;;;;;;18.91;50.92;97596.13;5091299;28;20446;-80
2022/04/10 07:02:44;;;;;;;16.58;4.82;;;;;;;18.77;50.29;97584.00;5079759;28;20032;-80
2022/04/10 07:05:11;;;;;;;8.73;2.90;;;;;;;19.05;50.70;97620.19;5071495;28;20028;-80
2022/04/10 07:07:36;;;;;;;6.80;2.38;;;;;;;18.45;50.89;97543.75;5090997;28;20408;-80
2022/04/10 07:10:02;;;;;;;15.25;5.55;;;;;;;18.79;50.58;97594.69;5091165;28;20028;-80
2022/04/10 07:12:27;;;;;;;13.70;3.55;;;;;;;18.94;50.76;97606.28;5092645;28;20073;-80
2022/04/10 07:14:53;;;;;;;20.95;7.68;;;;;;;18.86;50.24;97592.09;5081142;28;20029;-80
2022/04/10 07:17:19;;;;;;;16.13;5.38;;;;;;;18.97;50.08;97616.44;5070885;28;20524;-80
2022/04/10 07:19:45;;;;;;;20.83;6.88;;;;;;;19.15;49.46;97610.22;5070855;28;20475;-80
2022/04/10 07:24:55;;;;;;;4.25;1.98;;;;;;;19.66;49.76;97616.16;5076731;28;20062;-80
2022/04/10 07:27:21;;;;;;;1.95;1.20;;;;;;;19.64;48.40;97615.94;5071905;28;20083;-80
2022/04/10 07:29:46;;;;;;;1.50;1.30;;;;;;;19.75;48.53;97633.41;5070827;28;20028;-80
2022/04/10 07:32:11;;;;;;;3.42;1.52;;;;;;;20.02;48.43;97633.63;5087273;28;20117;-80
2022/04/10 07:34:37;;;;;;;13.10;4.82;;;;;;;19.72;48.95;97602.84;5070790;28;20024;-80
2022/04/10 07:37:02;;;;;;;10.98;4.18;;;;;;;20.02;49.58;97614.75;5084869;28;20028;-80
2022/04/10 07:39:28;;;;;;;2.50;1.55;;;;;;;20.09;49.20;97586.13;5092175;28;20131;-80
2022/04/10 07:41:53;;;;;;;3.85;1.45;;;;;;;20.47;48.23;97623.44;5091330;28;20024;-80
2022/04/10 07:44:19;;;;;;;4.28;1.80;;;;;;;20.51;47.26;97635.09;5090115;28;20100;-80
2022/04/10 07:49:28;;;;;;;8.02;2.00;;;;;;;19.26;47.62;97576.50;5074793;28;20069;-80
2022/04/10 07:51:54;;;;;;;4.13;2.50;;;;;;;18.76;46.69;97620.91;5090596;28;20021;-79
2022/04/10 07:54:19;;;;;;;10.93;3.25;;;;;;;18.81;48.13;97660.03;5075681;28;20636;-80
2022/04/10 07:56:46;;;;;;;8.85;3.00;;;;;;;18.80;48.92;97657.78;5093930;28;20028;-80
2022/04/10 07:59:12;;;;;;;6.05;2.45;;;;;;;18.44;49.74;97674.47;5095902;28;20026;-79
2022/04/10 08:01:37;;;;;;;4.35;3.05;;;;;;;17.88;51.27;97624.31;5081288;28;20021;-80
2022/04/10 08:04:03;;;;;;;6.45;2.65;;;;;;;18.40;51.32;97659.97;5083382;28;20114;-79
2022/04/10 08:06:29;;;;;;;2.65;1.83;;;;;;;18.55;50.60;97638.06;5094334;28;20504;-80
2022/04/10 08:08:54;;;;;;;2.97;1.85;;;;;;;19.02;49.62;97635.25;5093696;28;20043;-80
2022/04/10 08:11:20;;;;;;;4.28;2.22;;;;;;;19.47;50.08;97644.84;5094018;28;20029;-80
2022/04/10 08:13:46;;;;;;;6.38;2.10;;;;;;;19.82;48.47;97601.97;5094103;28;20487;-79
2022/04/10 08:16:14;;;;;;;7.18;2.53;;;;;;;19.74;49.12;97611.50;5094160;28;20097;-80
2022/04/10 08:18:39;;;;;;;4.43;2.90;;;;;;;19.55;50.35;97599.44;5095473;28;20024;-81
2022/04/10 08:21:06;;;;;;;6.22;3.20;;;;;;;19.97;48.84;97617.63;5095302;28;20484;-80
2022/04/10 08:23:31;;;;;;;2.33;1.88;;;;;;;19.27;49.96;97583.63;5094304;28;20024;-81
2022/04/10 08:25:57;;;;;;;4.22;2.72;;;;;;;19.31;50.81;97544.88;5095152;28;20032;-81
2022/04/10 08:28:22;;;;;;;5.13;3.15;;;;;;;18.97;49.80;97552.06;5095058;28;20051;-80
2022/04/10 08:30:48;;;;;;;7.22;2.40;;;;;;;18.74;50.91;97556.31;5090100;28;20029;-81
2022/04/10 08:33:13;;;;;;;8.20;2.70;;;;;;;19.49;50.32;97616.31;5086731;28;20024;-80
2022/04/10 08:35:39;;;;;;;4.80;3.05;;;;;;;19.31;51.28;97625.34;5093228;28;20048;-83
2022/04/10 08:38:04;;;;;;;4.15;2.75;;;;;;;19.16;51.68;97608.94;5093969;28;20065;-85
2022/04/10 08:40:31;;;;;;;4.35;2.78;;;;;;;20.21;52.23;97629.56;5095298;28;20071;-85
2022/04/10 08:42:59;;;;;;;4.78;2.95;;;;;;;21.10;48.12;97622.78;5089323;28;20035;-83
2022/04/10 08:45:26;;;;;;;2.72;2.22;;;;;;;21.13;46.30;97579.59;5086176;28;20039;-84
2022/04/10 08:47:53;;;;;;;4.03;1.90;;;;;;;21.42;44.72;97608.00;5093929;28;20122;-85
2022/04/10 08:50:19;;;;;;;4.68;2.60;;;;;;;21.80;46.86;97609.38;5092680;28;20464;-87
2022/04/10 08:52:45;;;;;;;3.80;2.60;;;;;;;21.15;45.71;97565.03;5081455;28;20119;-88
2022/04/10 08:55:11;;;;;;;5.70;2.50;;;;;;;21.26;48.19;97567.66;5093176;28;20434;-82
2022/04/10 08:57:36;;;;;;;5.40;2.45;;;;;;;21.30;46.28;97581.38;5081510;28;20024;-85
2022/04/10 09:00:03;;;;;;;6.22;2.92;;;;;;;21.72;44.90;97546.63;5074647;28;20120;-85
2022/04/10 09:02:29;;;;;;;3.17;2.30;;;;;;;21.82;44.86;97556.13;5073428;28;20033;-84
2022/04/10 09:04:54;;;;;;;3.78;1.83;;;;;;;22.38;44.10;97585.22;5073326;28;20472;-86
2022/04/10 09:07:20;;;;;;;2.35;1.98;;;;;;;22.24;43.19;97556.38;5072981;28;20436;-83
2022/04/10 09:09:54;;;;;;;2.60;1.80;;;;;;;22.29;42.35;97578.00;5077556;28;20032;-82
2022/04/10 09:12:20;;;;;;;3.00;2.00;;;;;;;22.10;43.23;97585.81;5093289;28;20115;-82
2022/04/10 09:14:46;;;;;;;6.13;1.77;;;;;;;22.04;44.71;97576.72;5093043;28;20020;-82
2022/04/10 09:17:19;;;;;;;3.05;2.25;;;;;;;22.15;41.96;97537.13;5093396;28;20024;-83
2022/04/10 09:19:50;;;;;;;5.10;2.33;;;;;;;22.43;43.55;97575.91;5093203;28;20028;-82
2022/04/10 09:22:38;;;;;;;3.33;2.15;;;;;;;22.57;40.66;97585.84;5092986;28;20035;-82
2022/04/10 09:25:11;;;;;;;2.88;1.73;;;;;;;22.50;41.07;97584.47;5094564;28;20055;-82
2022/04/10 09:27:43;;;;;;;4.38;2.22;;;;;;;22.07;41.99;97587.66;5092947;28;20028;-83
2022/04/10 09:30:10;;;;;;;2.65;2.03;;;;;;;21.38;41.92;97563.38;5093014;28;20035;-83
2022/04/10 09:32:47;;;;;;;3.13;1.73;;;;;;;21.29;42.73;97582.66;5094074;28;20070;-82
2022/04/10 09:35:15;;;;;;;5.00;2.60;;;;;;;21.45;44.31;97596.44;5092741;28;20089;-83
2022/04/10 09:37:45;;;;;;;4.47;2.30;;;;;;;20.48;43.98;97534.41;5094070;28;20028;-84
2022/04/10 09:40:26;;;;;;;3.22;1.70;;;;;;;20.52;44.73;97554.47;5092706;28;20055;-84
2022/04/10 09:43:05;;;;;;;3.70;2.35;;;;;;;21.08;43.11;97599.34;5092955;28;20545;-83
2022/04/10 09:45:40;;;;;;;2.13;1.83;;;;;;;20.86;43.46;97611.66;5092984;28;20515;-82
2022/04/10 09:48:29;;;;;;;3.67;1.85;;;;;;;21.09;44.09;97614.91;5092837;28;20028;-84
2022/04/10 09:50:58;;;;;;;5.65;2.35;;;;;;;20.83;43.83;97609.91;5092294;28;20105;-82
2022/04/10 09:53:26;;;;;;;4.95;1.80;;;;;;;20.95;44.50;97588.03;5092552;28;20019;-83
2022/04/10 09:55:57;;;;;;;2.40;1.95;;;;;;;20.79;43.03;97594.69;5085223;28;20035;-84
2022/04/10 09:58:24;;;;;;;9.70;8.13;;;;;;;20.31;42.93;97557.78;5072287;28;20083;-82
2022/04/10 10:00:52;;;;;;;3.13;1.98;;;;;;;19.91;43.33;97556.00;5071964;28;20054;-83
2022/04/10 10:03:20;;;;;;;;;;;;;;;20.48;43.37;97598.94;5073918;28;20031;-86
2022/04/10 10:05:46;;;;;;;4.03;2.78;;;;;;;20.20;44.83;97569.16;5072272;28;20364;-82
2022/04/10 10:08:12;;;;;;;4.07;2.65;;;;;;;20.96;43.82;97583.94;5073344;28;20020;-81
2022/04/10 10:10:38;;;;;;;3.67;2.63;;;;;;;21.32;45.23;97576.75;5071479;28;20025;-85
2022/04/10 10:13:07;;;;;;;3.75;2.80;;;;;;;21.52;43.40;97606.28;5073990;28;20017;-83
2022/04/10 10:15:35;;;;;;;2.72;1.90;;;;;;;20.85;41.46;97587.69;5089872;28;20039;-81
2022/04/10 10:18:04;;;;;;;9.32;2.55;;;;;;;20.41;42.26;97593.91;5092256;28;20483;-82
2022/04/10 10:20:30;;;;;;;2.95;1.95;;;;;;;19.83;43.87;97574.72;5091885;28;20124;-84
2022/04/10 10:23:16;;;;;;;3.38;1.80;;;;;;;19.69;44.03;97603.91;5091787;28;20020;-83
2022/04/10 10:25:54;;;;;;;2.78;1.52;;;;;;;19.45;43.50;97593.41;5091074;28;20495;-81
2022/04/10 10:28:23;;;;;;;2.47;1.55;;;;;;;18.80;43.54;97615.81;5091984;28;20028;-81
2022/04/10 10:31:14;;;;;;;1.45;1.15;;;;;;;18.67;44.59;97617.16;5092004;28;20032;-82
2022/04/10 10:33:49;;;;;;;3.03;1.50;;;;;;;18.41;46.52;97611.16;5091718;28;20031;-83
2022/04/10 10:36:22;;;;;;;1.15;1.02;;;;;;;18.02;47.55;97625.31;5092463;28;20059;-82
2022/04/10 10:38:54;;;;;;;1.40;1.30;;;;;;;17.57;51.21;97593.88;5091942;28;20424;-81
2022/04/10 10:41:20;;;;;;;2.90;1.00;;;;;;;17.56;53.51;97609.09;5091755;28;20479;-83
2022/04/10 10:43:47;;;;;;;9.82;1.80;;;;;;;17.69;54.39;97634.50;5091726;28;20028;-81
2022/04/10 10:46:26;;;;;;;3.58;1.48;;;;;;;16.59;56.98;97568.97;5092690;28;20055;-82
2022/04/10 10:49:18;;;;;;;2.25;1.35;;;;;;;16.80;57.65;97625.34;5092541;28;20525;-80
2022/04/10 10:51:49;;;;;;;2.00;1.20;;;;;;;16.24;58.68;97574.97;5091346;28;20394;-80
2022/04/10 10:54:35;;;;;;;1.52;0.77;;;;;;;16.61;56.85;97608.31;5090719;28;20032;-82
2022/04/10 10:57:32;;;;;;;1.30;0.82;;;;;;;16.84;56.43;97623.06;5092192;28;20132;-82
2022/04/10 11:00:18;;;;;;;1.13;1.02;;;;;;;16.94;54.75;97625.09;5092531;28;20031;-82
2022/04/10 11:02:52;;;;;;;3.05;1.20;;;;;;;16.69;53.50;97614.94;5091394;28;20109;-83
2022/04/10 11:05:33;;;;;;;0.80;0.80;;;;;;;16.31;52.40;97619.09;5077832;28;20564;-83
2022/04/10 11:07:58;;;;;;;0.77;0.63;;;;;;;16.18;54.54;97630.69;5088611;28;20466;-83
2022/04/10 11:10:28;;;;;;;0.95;0.85;;;;;;;15.83;52.81;97622.69;5091376;28;20070;-82
2022/04/10 11:12:58;;;;;;;0.73;0.70;;;;;;;15.68;53.18;97607.38;5074641;28;20020;-83
2022/04/10 11:15:29;;;;;;;2.88;1.50;;;;;;;15.52;53.41;97638.63;5070881;28;20041;-81
2022/04/10 11:17:54;;;;;;;2.75;1.60;;;;;;;15.49;56.01;97663.41;5072377;28;20035;-81
2022/04/10 11:20:22;;;;;;;1.73;1.30;;;;;;;14.99;58.71;97637.97;5081645;28;20036;-81
2022/04/10 11:22:53;;;;;;;1.10;0.87;;;;;;;14.02;63.19;97623.97;5094430;28;20024;-81
2022/04/10 11:25:29;;;;;;;1.38;0.57;;;;;;;13.25;66.19;97629.94;5083262;28;20028;-80
2022/04/10 11:27:57;;;;;;;1.98;1.23;;;;;;;13.56;65.29;97638.50;5094682;28;20024;-81
2022/04/10 11:30:24;;;;;;;0.70;0.70;;;;;;;13.32;68.92;97635.13;5093326;28;20028;-82
2022/04/10 11:33:00;;;;;;;4.55;1.52;;;;;;;12.65;71.39;97678.28;5075057;28;20032;-84
2022/04/10 11:35:33;;;;;;;2.08;1.27;;;;;;;11.82;75.44;97616.44;5087626;28;20024;-81
2022/04/10 11:38:05;;;;;;;5.47;2.05;;;;;;;12.40;74.01;97653.88;5087687;28;20384;-82
2022/04/10 11:40:33;;;;;;;2.97;1.08;;;;;;;12.34;75.00;97619.75;5093271;28;20047;-81